Impacts TAF Board INFO
FOR SITUATIONAL AWARENESS. NOT TO BE USED FOR FLIGHT PLANNING PURPOSES.
IDs:

KBOS - Boston/Logan Intl, MA, US

Issued at 1507 UTC 23 Jun 2018
Updated at 1529 UTC 23 Jun 2018
Potential Impact None Slight Moderate High
Time1454Z 23/16Z 23/17Z 23/18Z 23/19Z 23/20Z 23/21Z 23/22Z 23/23Z 24/00Z 24/01Z 24/02Z 24/03Z 24/04Z>>
Type OBS PRVL PRVL PRVL PRVL PRVL PRVL PRVL PRVL PRVL PRVL PRVL PRVL PRVL
VIS 10 >6 >6 >6 >6 >6 >6 5 5 5 5 3 3 3
CIG 70 70 25 25 25 25 25 8 8 8 8 8 8 8
Cover OVC BKN OVC OVC OVC OVC OVC OVC OVC OVC OVC OVC OVC OVC
FltCat VFR VFR MVFR MVFR MVFR MVFR MVFR IFR IFR IFR IFR IFR IFR IFR
WX -- VCSH VCSH VCSH VCSH VCSH VCSH -SHRA BR -SHRA BR -SHRA BR -SHRA BR BR VCSH BR VCSH BR VCSH
WDir 90 90 80 80 80 80 80 60 60 60 60 20 20 20
WSpd 12 12 8 8 8 8 8 6 6 6 6 6 6 6
WGst -- -- -- -- -- -- -- -- -- -- -- -- -- --

Raw TAF
KBOS 231507Z 2315/2418 09012KT P6SM VCSH SCT050 BKN070
  FM231700 08008KT P6SM VCSH OVC025
  FM232200 06006KT 5SM -SHRA BR OVC008
  FM240200 02006KT 3SM BR VCSH OVC008
  FM240500 35006KT 5SM -SHRA BR OVC008
  FM241200 29003KT P6SM BKN010
  FM241400 24003KT P6SM BKN050
  FM241600 20004KT P6SM VCSH BKN050


Raw METAR
KBOS 231454Z 09012KT 10SM SCT049 BKN070 OVC150 17/14 A2997 RMK AO2 SLP149 60000 T01720139 58008
KBOS 231354Z 09012KT 10SM BKN070 BKN110 OVC180 18/13 A2999 RMK AO2 RAB37E46 SLP154 P0000 T01780128
KBOS 231254Z 06007KT 10SM FEW060 BKN090 OVC180 18/13 A2999 RMK AO2 SLP155 T01780128

METAR Board
Radar Display
Forecast Discussion

FOR SITUATIONAL AWARENESS. NOT TO BE USED FOR FLIGHT PLANNING PURPOSES.